sensor_id;sensor_type;location;lat;lon;timestamp;P1;durP1;ratioP1;P2;durP2;ratioP2
46457;SDS011;32155;54.076;12.092;2023-05-07T04:02:17;15.85;;;7.32;;
46457;SDS011;32155;54.076;12.092;2023-05-07T04:04:46;20.88;;;8.45;;
46457;SDS011;32155;54.076;12.092;2023-05-07T04:07:14;15.90;;;6.70;;
46457;SDS011;32155;54.076;12.092;2023-05-07T04:09:40;12.60;;;6.32;;
46457;SDS011;32155;54.076;12.092;2023-05-07T04:12:06;15.20;;;6.85;;
46457;SDS011;32155;54.076;12.092;2023-05-07T04:15:05;17.25;;;7.93;;
46457;SDS011;32155;54.076;12.092;2023-05-07T04:21:05;15.68;;;7.47;;
46457;SDS011;32155;54.076;12.092;2023-05-07T04:23:40;12.05;;;6.90;;
46457;SDS011;32155;54.076;12.092;2023-05-07T04:26:07;14.70;;;7.93;;
46457;SDS011;32155;54.076;12.092;2023-05-07T04:28:33;15.23;;;7.15;;
46457;SDS011;32155;54.076;12.092;2023-05-07T04:30:59;13.13;;;7.75;;
46457;SDS011;32155;54.076;12.092;2023-05-07T04:33:26;14.63;;;7.03;;
46457;SDS011;32155;54.076;12.092;2023-05-07T04:35:54;13.13;;;6.93;;
46457;SDS011;32155;54.076;12.092;2023-05-07T04:38:20;17.02;;;6.75;;
46457;SDS011;32155;54.076;12.092;2023-05-07T04:40:52;18.98;;;7.20;;
46457;SDS011;32155;54.076;12.092;2023-05-07T04:43:43;13.63;;;6.63;;
46457;SDS011;32155;54.076;12.092;2023-05-07T04:46:20;19.20;;;7.10;;
46457;SDS011;32155;54.076;12.092;2023-05-07T04:49:27;16.40;;;6.97;;
46457;SDS011;32155;54.076;12.092;2023-05-07T04:52:33;13.95;;;7.05;;
46457;SDS011;32155;54.076;12.092;2023-05-07T04:58:10;11.93;;;6.38;;
46457;SDS011;32155;54.076;12.092;2023-05-07T05:00:47;16.52;;;7.18;;
46457;SDS011;32155;54.076;12.092;2023-05-07T05:03:18;12.02;;;6.55;;
46457;SDS011;32155;54.076;12.092;2023-05-07T05:08:47;13.85;;;6.32;;
46457;SDS011;32155;54.076;12.092;2023-05-07T05:11:30;12.05;;;6.43;;
46457;SDS011;32155;54.076;12.092;2023-05-07T05:14:12;10.05;;;6.30;;
46457;SDS011;32155;54.076;12.092;2023-05-07T05:17:07;11.48;;;5.75;;
46457;SDS011;32155;54.076;12.092;2023-05-07T05:22:12;12.35;;;6.25;;
46457;SDS011;32155;54.076;12.092;2023-05-07T05:24:40;11.02;;;5.75;;
46457;SDS011;32155;54.076;12.092;2023-05-07T05:27:33;9.88;;;5.55;;
46457;SDS011;32155;54.076;12.092;2023-05-07T05:30:05;13.02;;;6.03;;
46457;SDS011;32155;54.076;12.092;2023-05-07T05:35:45;9.02;;;5.82;;
46457;SDS011;32155;54.076;12.092;2023-05-07T05:38:14;9.55;;;5.28;;
46457;SDS011;32155;54.076;12.092;2023-05-07T05:40:49;12.27;;;6.13;;
46457;SDS011;32155;54.076;12.092;2023-05-07T05:43:26;11.10;;;5.93;;
46457;SDS011;32155;54.076;12.092;2023-05-07T05:45:57;8.98;;;5.68;;
46457;SDS011;32155;54.076;12.092;2023-05-07T05:48:27;11.73;;;5.95;;
46457;SDS011;32155;54.076;12.092;2023-05-07T05:50:54;9.80;;;5.50;;
46457;SDS011;32155;54.076;12.092;2023-05-07T05:53:26;11.32;;;5.65;;
46457;SDS011;32155;54.076;12.092;2023-05-07T05:56:20;8.77;;;5.70;;
46457;SDS011;32155;54.076;12.092;2023-05-07T05:58:40;9.05;;;6.03;;
46457;SDS011;32155;54.076;12.092;2023-05-07T06:01:06;11.38;;;5.85;;
46457;SDS011;32155;54.076;12.092;2023-05-07T06:03:32;13.40;;;6.55;;
46457;SDS011;32155;54.076;12.092;2023-05-07T06:05:58;12.30;;;5.80;;
46457;SDS011;32155;54.076;12.092;2023-05-07T06:09:08;7.77;;;5.47;;
46457;SDS011;32155;54.076;12.092;2023-05-07T06:11:34;17.58;;;5.85;;
46457;SDS011;32155;54.076;12.092;2023-05-07T06:13:59;11.63;;;6.22;;
46457;SDS011;32155;54.076;12.092;2023-05-07T06:16:28;9.25;;;5.40;;
46457;SDS011;32155;54.076;12.092;2023-05-07T06:18:54;9.75;;;6.20;;
46457;SDS011;32155;54.076;12.092;2023-05-07T06:21:20;11.48;;;5.22;;
46457;SDS011;32155;54.076;12.092;2023-05-07T06:23:49;9.75;;;5.13;;
46457;SDS011;32155;54.076;12.092;2023-05-07T06:29:08;12.70;;;5.85;;
46457;SDS011;32155;54.076;12.092;2023-05-07T06:39:26;8.65;;;5.13;;
46457;SDS011;32155;54.076;12.092;2023-05-07T06:42:48;7.72;;;4.55;;
46457;SDS011;32155;54.076;12.092;2023-05-07T06:45:20;8.48;;;4.97;;
46457;SDS011;32155;54.076;12.092;2023-05-07T06:47:45;9.68;;;4.78;;
46457;SDS011;32155;54.076;12.092;2023-05-07T06:52:41;7.72;;;4.78;;
46457;SDS011;32155;54.076;12.092;2023-05-07T06:55:08;5.93;;;4.30;;
46457;SDS011;32155;54.076;12.092;2023-05-07T06:57:37;11.55;;;4.85;;
46457;SDS011;32155;54.076;12.092;2023-05-07T07:00:24;4.80;;;4.05;;
46457;SDS011;32155;54.076;12.092;2023-05-07T07:03:13;6.40;;;4.20;;
46457;SDS011;32155;54.076;12.092;2023-05-07T07:05:42;8.20;;;4.43;;
46457;SDS011;32155;54.076;12.092;2023-05-07T07:08:07;8.15;;;4.40;;
46457;SDS011;32155;54.076;12.092;2023-05-07T07:10:36;5.75;;;4.18;;
46457;SDS011;32155;54.076;12.092;2023-05-07T07:13:05;5.50;;;3.70;;
46457;SDS011;32155;54.076;12.092;2023-05-07T07:15:34;5.80;;;3.70;;
46457;SDS011;32155;54.076;12.092;2023-05-07T07:18:02;4.00;;;3.60;;
46457;SDS011;32155;54.076;12.092;2023-05-07T07:20:31;6.28;;;3.47;;
46457;SDS011;32155;54.076;12.092;2023-05-07T07:23:10;8.10;;;3.67;;
46457;SDS011;32155;54.076;12.092;2023-05-07T07:25:39;5.38;;;3.60;;
46457;SDS011;32155;54.076;12.092;2023-05-07T07:28:08;6.47;;;3.05;;
46457;SDS011;32155;54.076;12.092;2023-05-07T07:30:39;4.70;;;3.33;;
46457;SDS011;32155;54.076;12.092;2023-05-07T07:33:18;5.05;;;3.20;;
46457;SDS011;32155;54.076;12.092;2023-05-07T07:35:53;5.85;;;2.90;;
46457;SDS011;32155;54.076;12.092;2023-05-07T07:38:26;7.68;;;3.42;;
46457;SDS011;32155;54.076;12.092;2023-05-07T07:41:01;7.93;;;3.30;;
46457;SDS011;32155;54.076;12.092;2023-05-07T07:43:39;5.97;;;3.33;;
46457;SDS011;32155;54.076;12.092;2023-05-07T07:46:26;4.45;;;2.92;;
46457;SDS011;32155;54.076;12.092;2023-05-07T07:52:52;7.93;;;3.45;;
46457;SDS011;32155;54.076;12.092;2023-05-07T07:55:36;5.80;;;3.20;;
46457;SDS011;32155;54.076;12.092;2023-05-07T07:58:52;6.35;;;3.15;;
46457;SDS011;32155;54.076;12.092;2023-05-07T08:01:37;6.00;;;3.00;;
46457;SDS011;32155;54.076;12.092;2023-05-07T08:04:06;5.65;;;3.13;;
46457;SDS011;32155;54.076;12.092;2023-05-07T08:06:41;4.22;;;2.75;;
46457;SDS011;32155;54.076;12.092;2023-05-07T08:09:09;6.40;;;3.10;;
46457;SDS011;32155;54.076;12.092;2023-05-07T08:11:50;4.05;;;2.80;;
46457;SDS011;32155;54.076;12.092;2023-05-07T08:14:19;5.32;;;3.50;;
46457;SDS011;32155;54.076;12.092;2023-05-07T08:16:50;5.20;;;3.05;;
46457;SDS011;32155;54.076;12.092;2023-05-07T08:26:24;12.20;;;3.47;;
46457;SDS011;32155;54.076;12.092;2023-05-07T08:31:53;8.60;;;3.42;;
46457;SDS011;32155;54.076;12.092;2023-05-07T08:34:32;5.28;;;3.80;;
46457;SDS011;32155;54.076;12.092;2023-05-07T08:37:10;6.95;;;3.85;;
46457;SDS011;32155;54.076;12.092;2023-05-07T08:39:36;5.18;;;3.45;;
46457;SDS011;32155;54.076;12.092;2023-05-07T08:42:34;7.25;;;3.55;;
46457;SDS011;32155;54.076;12.092;2023-05-07T08:45:33;8.43;;;3.05;;
46457;SDS011;32155;54.076;12.092;2023-05-07T08:48:34;5.55;;;2.85;;
46457;SDS011;32155;54.076;12.092;2023-05-07T08:51:03;5.63;;;3.35;;
46457;SDS011;32155;54.076;12.092;2023-05-07T08:53:47;8.43;;;3.28;;
46457;SDS011;32155;54.076;12.092;2023-05-07T08:56:22;4.45;;;2.88;;
46457;SDS011;32155;54.076;12.092;2023-05-07T08:58:52;7.30;;;3.20;;
46457;SDS011;32155;54.076;12.092;2023-05-07T09:01:37;6.50;;;3.58;;
46457;SDS011;32155;54.076;12.092;2023-05-07T09:04:09;5.75;;;3.00;;
46457;SDS011;32155;54.076;12.092;2023-05-07T09:06:54;7.75;;;2.95;;
46457;SDS011;32155;54.076;12.092;2023-05-07T09:09:23;4.25;;;3.13;;
46457;SDS011;32155;54.076;12.092;2023-05-07T09:12:01;5.80;;;3.10;;
46457;SDS011;32155;54.076;12.092;2023-05-07T09:14:34;5.32;;;3.22;;
46457;SDS011;32155;54.076;12.092;2023-05-07T09:38:42;4.22;;;2.83;;
46457;SDS011;32155;54.076;12.092;2023-05-07T10:09:40;6.18;;;2.63;;
46457;SDS011;32155;54.076;12.092;2023-05-07T10:40:44;2.67;;;2.20;;
46457;SDS011;32155;54.076;12.092;2023-05-07T10:43:25;5.30;;;2.42;;
46457;SDS011;32155;54.076;12.092;2023-05-07T10:46:29;3.95;;;2.25;;
46457;SDS011;32155;54.076;12.092;2023-05-07T10:59:40;4.05;;;2.63;;
46457;SDS011;32155;54.076;12.092;2023-05-07T11:03:04;5.82;;;2.50;;
46457;SDS011;32155;54.076;12.092;2023-05-07T11:17:01;4.85;;;2.72;;
46457;SDS011;32155;54.076;12.092;2023-05-07T11:20:00;4.00;;;2.67;;
46457;SDS011;32155;54.076;12.092;2023-05-07T11:36:51;3.58;;;2.65;;
46457;SDS011;32155;54.076;12.092;2023-05-07T11:39:23;5.60;;;2.80;;
46457;SDS011;32155;54.076;12.092;2023-05-07T11:45:08;4.78;;;3.15;;
46457;SDS011;32155;54.076;12.092;2023-05-07T11:47:59;5.28;;;2.63;;
46457;SDS011;32155;54.076;12.092;2023-05-07T11:50:53;6.57;;;2.30;;
46457;SDS011;32155;54.076;12.092;2023-05-07T11:53:43;5.50;;;2.85;;
46457;SDS011;32155;54.076;12.092;2023-05-07T11:59:57;4.47;;;2.90;;
46457;SDS011;32155;54.076;12.092;2023-05-07T12:05:54;5.78;;;2.88;;
46457;SDS011;32155;54.076;12.092;2023-05-07T12:08:26;4.93;;;2.80;;
46457;SDS011;32155;54.076;12.092;2023-05-07T12:11:32;4.30;;;2.80;;
46457;SDS011;32155;54.076;12.092;2023-05-07T12:17:17;5.18;;;2.85;;
46457;SDS011;32155;54.076;12.092;2023-05-07T12:20:42;5.63;;;2.97;;
46457;SDS011;32155;54.076;12.092;2023-05-07T12:23:17;6.63;;;2.75;;
46457;SDS011;32155;54.076;12.092;2023-05-07T12:26:15;3.55;;;2.90;;
46457;SDS011;32155;54.076;12.092;2023-05-07T12:29:07;4.63;;;2.90;;
46457;SDS011;32155;54.076;12.092;2023-05-07T12:31:33;5.38;;;3.15;;
46457;SDS011;32155;54.076;12.092;2023-05-07T12:34:16;4.50;;;2.60;;
46457;SDS011;32155;54.076;12.092;2023-05-07T12:41:18;6.53;;;2.83;;
46457;SDS011;32155;54.076;12.092;2023-05-07T12:47:35;4.70;;;2.65;;
46457;SDS011;32155;54.076;12.092;2023-05-07T12:50:12;4.93;;;3.13;;
46457;SDS011;32155;54.076;12.092;2023-05-07T13:08:32;5.13;;;2.75;;
46457;SDS011;32155;54.076;12.092;2023-05-07T13:11:16;4.78;;;2.75;;
46457;SDS011;32155;54.076;12.092;2023-05-07T13:14:42;4.10;;;2.70;;
46457;SDS011;32155;54.076;12.092;2023-05-07T13:18:24;6.22;;;2.80;;
46457;SDS011;32155;54.076;12.092;2023-05-07T13:20:48;4.28;;;2.92;;
46457;SDS011;32155;54.076;12.092;2023-05-07T13:24:09;7.50;;;3.05;;
46457;SDS011;32155;54.076;12.092;2023-05-07T13:37:34;4.88;;;2.90;;
46457;SDS011;32155;54.076;12.092;2023-05-07T13:40:13;5.70;;;3.13;;
46457;SDS011;32155;54.076;12.092;2023-05-07T13:42:53;6.22;;;2.83;;
46457;SDS011;32155;54.076;12.092;2023-05-07T13:45:51;6.10;;;2.83;;
46457;SDS011;32155;54.076;12.092;2023-05-07T13:48:52;5.53;;;2.88;;
46457;SDS011;32155;54.076;12.092;2023-05-07T13:52:10;7.22;;;3.00;;
46457;SDS011;32155;54.076;12.092;2023-05-07T13:55:23;6.07;;;2.97;;
46457;SDS011;32155;54.076;12.092;2023-05-07T13:58:07;5.65;;;2.47;;
46457;SDS011;32155;54.076;12.092;2023-05-07T14:00:41;6.10;;;2.55;;
46457;SDS011;32155;54.076;12.092;2023-05-07T14:03:13;5.15;;;2.55;;
46457;SDS011;32155;54.076;12.092;2023-05-07T14:05:56;5.65;;;2.65;;
46457;SDS011;32155;54.076;12.092;2023-05-07T14:08:33;6.95;;;2.50;;
46457;SDS011;32155;54.076;12.092;2023-05-07T14:11:07;4.72;;;2.47;;
46457;SDS011;32155;54.076;12.092;2023-05-07T14:13:42;4.90;;;2.63;;
46457;SDS011;32155;54.076;12.092;2023-05-07T14:16:40;5.50;;;2.60;;
46457;SDS011;32155;54.076;12.092;2023-05-07T14:19:43;5.55;;;2.50;;
46457;SDS011;32155;54.076;12.092;2023-05-07T14:26:32;4.70;;;3.08;;
46457;SDS011;32155;54.076;12.092;2023-05-07T14:29:29;3.33;;;2.33;;
46457;SDS011;32155;54.076;12.092;2023-05-07T14:36:09;4.57;;;2.38;;
46457;SDS011;32155;54.076;12.092;2023-05-07T15:03:11;4.85;;;2.08;;
46457;SDS011;32155;54.076;12.092;2023-05-07T15:06:48;5.13;;;1.90;;
46457;SDS011;32155;54.076;12.092;2023-05-07T15:13:33;5.18;;;2.00;;
46457;SDS011;32155;54.076;12.092;2023-05-07T15:16:18;6.18;;;2.17;;
46457;SDS011;32155;54.076;12.092;2023-05-07T15:22:49;4.38;;;2.00;;
46457;SDS011;32155;54.076;12.092;2023-05-07T15:25:55;4.45;;;1.98;;
46457;SDS011;32155;54.076;12.092;2023-05-07T15:28:54;4.07;;;1.80;;
46457;SDS011;32155;54.076;12.092;2023-05-07T15:31:35;3.17;;;1.92;;
46457;SDS011;32155;54.076;12.092;2023-05-07T15:34:47;2.17;;;1.52;;
46457;SDS011;32155;54.076;12.092;2023-05-07T15:41:02;4.45;;;2.00;;
46457;SDS011;32155;54.076;12.092;2023-05-07T15:54:02;3.38;;;1.77;;
46457;SDS011;32155;54.076;12.092;2023-05-07T15:56:31;2.85;;;1.88;;
46457;SDS011;32155;54.076;12.092;2023-05-07T15:59:03;4.20;;;1.92;;
46457;SDS011;32155;54.076;12.092;2023-05-07T16:05:27;6.15;;;2.05;;
46457;SDS011;32155;54.076;12.092;2023-05-07T16:08:10;3.53;;;2.10;;
46457;SDS011;32155;54.076;12.092;2023-05-07T16:11:01;3.45;;;2.30;;
46457;SDS011;32155;54.076;12.092;2023-05-07T16:13:59;4.05;;;2.40;;
46457;SDS011;32155;54.076;12.092;2023-05-07T16:17:10;5.47;;;2.38;;
46457;SDS011;32155;54.076;12.092;2023-05-07T16:20:51;5.28;;;2.30;;
46457;SDS011;32155;54.076;12.092;2023-05-07T16:30:44;4.13;;;3.13;;
46457;SDS011;32155;54.076;12.092;2023-05-07T16:37:04;9.23;;;3.15;;
46457;SDS011;32155;54.076;12.092;2023-05-07T16:39:50;7.80;;;3.30;;
46457;SDS011;32155;54.076;12.092;2023-05-07T16:45:22;5.60;;;2.92;;
46457;SDS011;32155;54.076;12.092;2023-05-07T16:48:14;5.05;;;2.80;;
46457;SDS011;32155;54.076;12.092;2023-05-07T16:50:46;6.80;;;3.03;;
46457;SDS011;32155;54.076;12.092;2023-05-07T16:53:12;6.90;;;2.97;;
46457;SDS011;32155;54.076;12.092;2023-05-07T16:55:40;5.80;;;3.00;;
46457;SDS011;32155;54.076;12.092;2023-05-07T17:05:35;8.05;;;2.92;;
46457;SDS011;32155;54.076;12.092;2023-05-07T17:08:16;16.98;;;3.13;;
46457;SDS011;32155;54.076;12.092;2023-05-07T17:11:06;5.65;;;2.78;;
46457;SDS011;32155;54.076;12.092;2023-05-07T17:13:32;7.60;;;3.38;;
46457;SDS011;32155;54.076;12.092;2023-05-07T17:16:21;10.57;;;3.40;;
46457;SDS011;32155;54.076;12.092;2023-05-07T17:19:03;4.60;;;2.83;;
46457;SDS011;32155;54.076;12.092;2023-05-07T17:21:29;8.00;;;2.95;;
46457;SDS011;32155;54.076;12.092;2023-05-07T17:24:04;6.47;;;2.55;;
46457;SDS011;32155;54.076;12.092;2023-05-07T17:26:30;5.65;;;2.90;;
46457;SDS011;32155;54.076;12.092;2023-05-07T17:32:14;5.25;;;2.83;;
46457;SDS011;32155;54.076;12.092;2023-05-07T17:34:46;5.57;;;2.47;;
46457;SDS011;32155;54.076;12.092;2023-05-07T17:37:12;10.52;;;3.05;;
46457;SDS011;32155;54.076;12.092;2023-05-07T17:40:17;6.15;;;2.60;;
46457;SDS011;32155;54.076;12.092;2023-05-07T17:43:04;5.97;;;2.65;;
46457;SDS011;32155;54.076;12.092;2023-05-07T17:45:31;7.97;;;2.63;;
46457;SDS011;32155;54.076;12.092;2023-05-07T17:48:03;4.55;;;2.42;;
46457;SDS011;32155;54.076;12.092;2023-05-07T17:53:39;7.97;;;2.50;;
46457;SDS011;32155;54.076;12.092;2023-05-07T17:56:50;6.28;;;3.00;;
46457;SDS011;32155;54.076;12.092;2023-05-07T18:00:08;7.43;;;2.50;;
46457;SDS011;32155;54.076;12.092;2023-05-07T18:06:45;9.48;;;3.00;;
46457;SDS011;32155;54.076;12.092;2023-05-07T18:09:34;8.63;;;2.65;;
46457;SDS011;32155;54.076;12.092;2023-05-07T18:12:00;9.60;;;2.83;;
46457;SDS011;32155;54.076;12.092;2023-05-07T18:15:02;8.77;;;2.60;;
46457;SDS011;32155;54.076;12.092;2023-05-07T18:20:50;5.10;;;2.78;;
46457;SDS011;32155;54.076;12.092;2023-05-07T18:23:47;7.97;;;2.70;;
46457;SDS011;32155;54.076;12.092;2023-05-07T18:26:18;4.43;;;3.03;;
46457;SDS011;32155;54.076;12.092;2023-05-07T18:35:48;6.00;;;2.80;;
46457;SDS011;32155;54.076;12.092;2023-05-07T18:44:42;5.53;;;2.80;;
46457;SDS011;32155;54.076;12.092;2023-05-07T18:57:17;9.82;;;2.85;;
46457;SDS011;32155;54.076;12.092;2023-05-07T19:07:35;8.35;;;3.30;;
46457;SDS011;32155;54.076;12.092;2023-05-07T19:10:41;3.72;;;2.50;;
46457;SDS011;32155;54.076;12.092;2023-05-07T19:40:39;9.35;;;3.08;;
46457;SDS011;32155;54.076;12.092;2023-05-07T19:43:30;9.70;;;2.60;;
46457;SDS011;32155;54.076;12.092;2023-05-07T19:46:13;5.22;;;2.70;;
46457;SDS011;32155;54.076;12.092;2023-05-07T19:55:23;6.50;;;2.58;;
46457;SDS011;32155;54.076;12.092;2023-05-07T20:05:18;8.25;;;2.80;;
46457;SDS011;32155;54.076;12.092;2023-05-07T20:08:25;7.85;;;3.10;;
46457;SDS011;32155;54.076;12.092;2023-05-07T20:11:58;8.48;;;2.55;;
46457;SDS011;32155;54.076;12.092;2023-05-07T20:17:27;7.93;;;2.58;;
46457;SDS011;32155;54.076;12.092;2023-05-07T20:20:12;7.53;;;2.63;;
46457;SDS011;32155;54.076;12.092;2023-05-07T20:22:57;6.68;;;2.75;;
46457;SDS011;32155;54.076;12.092;2023-05-07T20:25:56;9.13;;;2.80;;
46457;SDS011;32155;54.076;12.092;2023-05-07T20:41:32;8.45;;;3.13;;
46457;SDS011;32155;54.076;12.092;2023-05-07T20:49:18;6.75;;;2.85;;
46457;SDS011;32155;54.076;12.092;2023-05-07T21:06:39;5.60;;;3.20;;
46457;SDS011;32155;54.076;12.092;2023-05-07T21:10:11;8.98;;;2.85;;
46457;SDS011;32155;54.076;12.092;2023-05-07T21:12:28;11.18;;;3.28;;
46457;SDS011;32155;54.076;12.092;2023-05-07T21:19:00;7.68;;;3.03;;
46457;SDS011;32155;54.076;12.092;2023-05-07T21:22:41;5.03;;;3.13;;
46457;SDS011;32155;54.076;12.092;2023-05-07T21:26:08;6.93;;;2.95;;
46457;SDS011;32155;54.076;12.092;2023-05-07T21:39:09;6.10;;;2.83;;
